首页
METAR-TAF:

METAR-TAF

机场 :

St. Augustine Airport

聖奧古斯丁, 佛罗里达州, 美国

纬度: 29-57-33N, 经度: 081-20-23W, 海拔: 3米

当前天气观测

该预报发布于42分钟前的20:56 UTC
风速14节,风向西北
温度 14°C
湿度 38%
气压 1021 hPa
能見度: 16.1公里
天空无云

METAR: KSGJ 272056Z 31014KT 10SM CLR 14/00 A3014 RMK AO2 SLP204 T01440000 56010 $

时间: 16:38 (21:38 UTC)

预报

该预报发布于4小时和3分钟前的17:35 UTC
预报有效从27日的 18点(UTC)到 28日的 18点(UTC)
风速12节,风向西北,有时为18节阵风
能見度: 10公里
少量云层高于3000英尺
从 27日的 2300点(UTC)
风速5节,风向西转西北
能見度: 10公里
天空无云
从 28日的 1400点(UTC)
风速8节,风向西北
能見度: 10公里
天空无云

TAF: KSGJ 271735Z 2718/2818 31012G18KT P6SM FEW030 FM272300 30005KT P6SM SKC FM281400 31008KT P6SM SKC

超过4000个机场的气象观测和天气预报(METAR&TAF报告)。

可查询的气象台以黄色和红色小点在地图上表示。

将鼠标移到小点上方,可查看气象台名称。

然后点击查看天气观测和预报。

如需切换地图:点击带黑十字的绿色按钮放大地图;点击带横线的绿色按钮缩小地图;或者点击绿色箭头查看邻近地区的地图。


METAR-TAF: